Time;durP1;ratioP1;P1;durP2;ratioP2;P2;SDS_P1;SDS_P2;PMS_P1;PMS_P2;Temp;Humidity;BMP_temperature;BMP_pressure;BME280_temperature;BME280_humidity;BME280_pressure;Samples;Min_cycle;Max_cycle;Signal;HPM_P1;HPM_P2
2023/02/09 00:00:26;;;;;;;25.35;13.98;;;;;;;-4.65;81.03;100952.63;5045175;28;20037;-58
2023/02/09 00:02:51;;;;;;;26.77;13.25;;;;;;;-5.04;85.63;100959.56;5036489;28;20021;-58
2023/02/09 00:05:17;;;;;;;22.80;12.75;;;;;;;-5.80;87.64;100951.38;5034619;28;20353;-59
2023/02/09 00:07:42;;;;;;;37.22;15.25;;;;;;;-5.70;89.97;100942.84;5042146;28;20056;-58
2023/02/09 00:10:08;;;;;;;29.90;13.45;;;;;;;-5.31;94.12;100937.81;5043871;28;20399;-59
2023/02/09 00:15:27;;;;;;;29.48;13.43;;;;;;;-5.45;90.16;100947.38;5033965;28;20037;-58
2023/02/09 00:17:52;;;;;;;28.85;12.10;;;;;;;-5.60;89.00;100935.28;5044276;28;20099;-59
2023/02/09 00:20:18;;;;;;;23.02;11.60;;;;;;;-5.56;89.52;100939.38;5042145;28;20036;-58
2023/02/09 00:22:43;;;;;;;24.90;11.60;;;;;;;-5.13;91.53;100944.47;5041494;28;20029;-58
2023/02/09 00:25:09;;;;;;;24.17;11.90;;;;;;;-5.05;89.90;100947.41;5049396;28;20053;-58
2023/02/09 00:27:34;;;;;;;18.77;9.70;;;;;;;-4.84;87.11;100939.97;5041576;28;20554;-58
2023/02/09 00:30:00;;;;;;;27.42;10.90;;;;;;;-4.42;85.50;100939.78;5042463;28;20057;-58
2023/02/09 00:32:25;;;;;;;19.88;8.65;;;;;;;-4.59;85.26;100936.53;5048805;28;20013;-58
2023/02/09 00:34:51;;;;;;;19.75;10.52;;;;;;;-4.73;87.00;100931.38;5042491;28;20565;-58
2023/02/09 00:37:16;;;;;;;20.70;10.80;;;;;;;-5.31;85.95;100932.59;5038688;28;20080;-59
2023/02/09 00:39:42;;;;;;;24.02;11.55;;;;;;;-5.55;87.51;100928.00;5032914;28;20037;-58
2023/02/09 00:42:09;;;;;;;21.38;10.25;;;;;;;-5.79;89.21;100921.69;5039877;28;20388;-58
2023/02/09 00:44:37;;;;;;;21.42;9.85;;;;;;;-5.94;89.94;100924.38;5022490;28;20353;-59
2023/02/09 00:47:02;;;;;;;17.95;8.88;;;;;;;-6.07;90.80;100936.47;5039845;28;20018;-58
2023/02/09 00:49:28;;;;;;;12.80;7.32;;;;;;;-5.79;90.69;100924.28;5041629;28;20054;-58
2023/02/09 00:51:53;;;;;;;17.25;8.25;;;;;;;-5.39;89.08;100940.06;5043448;28;20040;-58
2023/02/09 00:54:19;;;;;;;16.55;8.25;;;;;;;-5.20;87.06;100937.97;5042514;28;20061;-58
2023/02/09 00:56:44;;;;;;;19.17;8.18;;;;;;;-5.16;86.93;100929.00;5041868;28;20090;-58
2023/02/09 00:59:10;;;;;;;20.50;8.90;;;;;;;-5.29;87.52;100933.31;5045804;28;20411;-58
2023/02/09 01:01:35;;;;;;;14.27;8.18;;;;;;;-5.47;87.62;100920.50;5048023;28;20045;-58
2023/02/09 01:04:01;;;;;;;18.30;9.30;;;;;;;-5.72;88.18;100920.38;5034345;28;20028;-58
2023/02/09 01:06:26;;;;;;;21.45;10.02;;;;;;;-5.89;89.52;100929.25;5037222;28;20025;-58
2023/02/09 01:08:52;;;;;;;25.20;9.82;;;;;;;-6.09;89.41;100923.53;5039141;28;20361;-58
2023/02/09 01:11:17;;;;;;;16.63;8.00;;;;;;;-6.28;91.57;100912.53;5040206;28;20495;-59
2023/02/09 01:13:43;;;;;;;20.75;9.85;;;;;;;-5.89;91.08;100909.22;5052708;28;20012;-58
2023/02/09 01:16:09;;;;;;;16.83;7.80;;;;;;;-5.44;88.34;100901.19;5045779;28;20025;-59
2023/02/09 01:18:35;;;;;;;15.63;8.38;;;;;;;-5.47;88.51;100904.81;5038802;28;20065;-59
2023/02/09 01:21:00;;;;;;;20.65;9.25;;;;;;;-5.52;88.08;100901.66;5039442;28;20462;-60
2023/02/09 01:23:26;;;;;;;18.42;9.13;;;;;;;-5.67;87.79;100905.25;5042218;28;20462;-58
2023/02/09 01:26:04;;;;;;;17.48;9.15;;;;;;;-5.94;88.35;100913.06;5036776;28;20017;-59
2023/02/09 01:28:30;;;;;;;19.73;10.18;;;;;;;-6.24;89.66;100907.97;5035854;28;20052;-59
2023/02/09 01:30:55;;;;;;;14.10;8.40;;;;;;;-6.49;91.92;100909.44;5043020;28;20025;-58
2023/02/09 01:33:21;;;;;;;20.15;8.15;;;;;;;-6.35;92.21;100912.06;5045231;28;20098;-58
2023/02/09 01:35:46;;;;;;;13.70;6.35;;;;;;;-6.03;91.20;100904.03;5036425;28;20033;-58
2023/02/09 01:38:12;;;;;;;21.75;10.77;;;;;;;-5.48;91.37;100903.16;5046931;28;20052;-58
2023/02/09 01:40:37;;;;;;;19.38;10.02;;;;;;;-5.25;92.22;100906.88;5035022;28;20052;-58
2023/02/09 01:43:03;;;;;;;22.40;10.73;;;;;;;-4.85;89.94;100908.66;5042347;28;20025;-58
2023/02/09 01:45:33;;;;;;;16.40;8.80;;;;;;;-4.91;88.03;100904.69;5042014;28;20439;-58
2023/02/09 01:47:59;;;;;;;18.05;9.25;;;;;;;-5.27;85.45;100902.69;5038255;28;20116;-58
2023/02/09 01:50:25;;;;;;;16.58;8.50;;;;;;;-5.62;92.14;100900.56;5044669;28;20164;-58
2023/02/09 01:52:50;;;;;;;23.05;10.65;;;;;;;-4.93;90.72;100897.88;5036268;28;20442;-58
2023/02/09 01:55:18;;;;;;;20.33;9.95;;;;;;;-5.14;88.86;100890.53;5073000;28;20025;-58
2023/02/09 01:57:48;;;;;;;22.20;10.18;;;;;;;-5.11;89.31;100889.47;5034339;28;20039;-58
2023/02/09 02:00:14;;;;;;;21.92;9.85;;;;;;;-4.89;90.56;100888.88;5036034;28;20035;-58
2023/02/09 02:02:45;;;;;;;21.00;9.60;;;;;;;-4.74;90.62;100887.88;5043035;28;20021;-58
2023/02/09 02:05:11;;;;;;;;;;;;;;;-4.85;89.45;100880.72;5054477;28;20292;-60
2023/02/09 02:07:44;;;;;;;19.55;9.25;;;;;;;-4.91;87.97;100883.75;5055566;28;19951;-58
2023/02/09 02:10:09;;;;;;;18.98;9.30;;;;;;;-4.77;90.41;100882.81;5038583;28;20499;-58
2023/02/09 02:12:35;;;;;;;22.45;10.73;;;;;;;-4.70;85.45;100886.69;5049512;28;20024;-58
2023/02/09 02:15:00;;;;;;;15.77;8.85;;;;;;;-4.58;84.59;100883.25;5050848;28;20116;-58
2023/02/09 02:17:26;;;;;;;25.40;11.40;;;;;;;-4.45;83.85;100885.03;5043395;28;20024;-58
2023/02/09 02:19:54;;;;;;;19.58;10.52;;;;;;;-4.46;84.24;100884.19;5044963;28;20092;-58
2023/02/09 02:22:41;;;;;;;17.90;9.32;;;;;;;-4.64;85.88;100888.06;5043441;28;20023;-58
2023/02/09 02:25:31;;;;;;;20.63;9.70;;;;;;;-4.86;92.83;100878.22;5048231;28;20025;-58
2023/02/09 02:28:14;;;;;;;20.35;9.68;;;;;;;-4.23;88.47;100877.38;5040999;28;20026;-58
2023/02/09 02:31:19;;;;;;;21.48;10.00;;;;;;;-4.12;85.25;100871.38;5042931;28;20025;-58
2023/02/09 02:33:59;;;;;;;19.65;9.32;;;;;;;-4.55;83.03;100875.19;5017346;28;20037;-58
2023/02/09 02:36:25;;;;;;;;;;;;;;;-5.54;85.00;100877.44;5040789;28;20028;-58
2023/02/09 02:38:55;;;;;;;18.92;9.40;;;;;;;-6.27;88.91;100884.66;5035389;28;19931;-58
2023/02/09 02:42:47;;;;;;;23.52;10.27;;;;;;;-5.34;91.14;100885.72;5045259;28;20083;-58
2023/02/09 02:44:17;;;;;;;22.05;9.45;;;;;;;-5.06;88.33;100877.78;5045061;28;20045;-58
2023/02/09 02:46:47;;;;;;;19.30;9.38;;;;;;;-5.52;87.43;100877.31;5043649;28;20393;-58
2023/02/09 02:49:19;;;;;;;20.85;10.35;;;;;;;-5.46;90.11;100875.16;5044604;28;20427;-58
2023/02/09 02:51:46;;;;;;;21.05;10.05;;;;;;;-5.24;90.67;100873.75;5027816;28;20029;-58
2023/02/09 02:54:16;;;;;;;19.02;10.02;;;;;;;-5.47;90.10;100880.47;5029990;28;20029;-58
2023/02/09 02:56:43;;;;;;;;;;;;;;;-6.07;89.81;100879.06;5046125;28;20163;-58
2023/02/09 02:59:13;;;;;;;13.77;8.77;;;;;;;-6.59;91.56;100866.56;5041501;28;19920;-59
2023/02/09 03:01:41;;;;;;;22.48;12.02;;;;;;;-5.48;92.94;100871.78;5031996;28;20835;-58
2023/02/09 03:04:07;;;;;;;26.73;11.32;;;;;;;-5.10;88.53;100873.66;5042366;28;20037;-58
2023/02/09 03:06:32;;;;;;;22.85;10.00;;;;;;;-4.97;90.15;100880.72;5031245;28;20036;-58
2023/02/09 03:08:58;;;;;;;19.20;9.95;;;;;;;-4.92;90.13;100873.38;5020621;28;20044;-58
2023/02/09 03:11:26;;;;;;;22.27;10.63;;;;;;;-4.79;87.53;100869.03;5044066;28;20029;-58
2023/02/09 03:13:52;;;;;;;20.38;10.57;;;;;;;-4.86;86.75;100867.75;5043656;28;20402;-58
2023/02/09 03:16:21;;;;;;;16.45;8.77;;;;;;;-4.76;85.51;100860.97;5049553;28;20556;-58
2023/02/09 03:19:12;;;;;;;22.17;10.25;;;;;;;-4.70;86.82;100860.53;5034665;28;20152;-59
2023/02/09 03:22:05;;;;;;;21.35;10.27;;;;;;;-4.53;88.52;100863.78;5047881;28;20486;-58
2023/02/09 03:25:11;;;;;;;25.50;9.77;;;;;;;-4.63;90.62;100864.41;5040980;28;20086;-58
2023/02/09 03:27:42;;;;;;;16.60;8.73;;;;;;;-4.62;89.89;100868.72;5048194;28;20055;-58
2023/02/09 03:30:09;;;;;;;22.35;12.00;;;;;;;-4.70;87.73;100868.38;5034298;28;20294;-58
2023/02/09 03:32:38;;;;;;;18.83;9.80;;;;;;;-4.61;86.29;100866.94;5026836;28;20035;-58
2023/02/09 03:35:04;;;;;;;21.50;9.98;;;;;;;-4.52;85.26;100875.94;5035596;28;20041;-58
2023/02/09 03:37:29;;;;;;;21.52;9.80;;;;;;;-5.05;84.20;100874.19;5051850;28;20025;-59
2023/02/09 03:39:55;;;;;;;22.80;9.77;;;;;;;-5.92;86.66;100875.44;5034485;28;20026;-58
2023/02/09 03:42:20;;;;;;;19.10;10.07;;;;;;;-6.41;89.59;100865.47;5042288;28;20613;-59
2023/02/09 03:44:46;;;;;;;25.30;10.02;;;;;;;-6.43;91.89;100866.50;5047317;28;20032;-58
2023/02/09 03:47:11;;;;;;;19.90;10.60;;;;;;;-6.17;95.55;100888.38;5040899;28;20021;-58
2023/02/09 03:49:38;;;;;;;21.40;9.88;;;;;;;-6.57;92.17;100880.38;5036187;28;20028;-59
2023/02/09 03:52:04;;;;;;;17.08;8.77;;;;;;;-6.98;93.22;100881.06;5048514;28;20064;-58
2023/02/09 03:54:30;;;;;;;20.60;10.15;;;;;;;-6.73;96.62;100877.84;5039069;28;20052;-59
2023/02/09 03:56:56;;;;;;;19.30;10.18;;;;;;;-6.86;95.06;100882.09;5035279;28;20048;-58
2023/02/09 03:59:24;;;;;;;21.13;9.98;;;;;;;-7.18;93.79;100885.66;5039178;28;20032;-58
2023/02/09 04:01:50;;;;;;;19.92;10.90;;;;;;;-7.31;95.77;100883.81;5045127;28;20032;-58
2023/02/09 04:04:16;;;;;;;22.30;10.25;;;;;;;-6.77;100.00;100889.38;5046368;28;20086;-58
2023/02/09 04:06:44;;;;;;;21.45;10.52;;;;;;;-6.59;100.00;100874.41;5039041;28;20534;-58
2023/02/09 04:09:09;;;;;;;24.35;11.73;;;;;;;-6.52;100.00;100878.31;5035132;28;20091;-59
2023/02/09 04:11:35;;;;;;;25.35;11.32;;;;;;;-6.92;99.62;100878.09;5047558;28;20827;-58
2023/02/09 04:14:00;;;;;;;20.73;10.88;;;;;;;-7.25;98.03;100873.91;5049498;28;20044;-58
2023/02/09 04:16:28;;;;;;;20.27;9.57;;;;;;;-7.20;99.02;100873.63;5043412;28;20383;-58
2023/02/09 04:18:54;;;;;;;18.15;9.07;;;;;;;-7.24;98.73;100870.38;5041987;28;20025;-58
2023/02/09 04:21:19;;;;;;;22.40;9.93;;;;;;;-6.78;100.00;100866.84;5037760;28;20017;-58
2023/02/09 04:23:48;;;;;;;18.17;10.02;;;;;;;-6.98;98.91;100879.28;5044042;28;20028;-58
2023/02/09 04:26:13;;;;;;;23.40;10.57;;;;;;;-7.12;99.81;100878.41;5040838;28;20468;-58
2023/02/09 04:28:39;;;;;;;18.25;8.80;;;;;;;-7.11;100.00;100890.50;5045480;28;20071;-58
2023/02/09 04:31:04;;;;;;;22.45;10.30;;;;;;;-7.28;99.75;100876.69;5052530;28;20040;-58
2023/02/09 04:33:30;;;;;;;21.38;10.55;;;;;;;-7.36;100.00;100878.91;5047645;28;20020;-58
2023/02/09 04:35:55;;;;;;;28.75;12.15;;;;;;;-7.05;99.57;100884.94;5042196;28;20041;-58
2023/02/09 04:38:21;;;;;;;20.90;10.63;;;;;;;-6.28;100.00;100880.38;5038523;28;20036;-59
2023/02/09 04:40:47;;;;;;;22.25;10.77;;;;;;;-6.45;98.47;100873.59;5043700;28;20036;-58
2023/02/09 04:43:13;;;;;;;30.27;12.27;;;;;;;-6.70;97.06;100884.66;5044925;28;20313;-58
2023/02/09 04:45:39;;;;;;;23.85;10.13;;;;;;;-6.75;97.51;100877.09;5044727;28;20419;-59
2023/02/09 04:48:05;;;;;;;19.13;10.05;;;;;;;-6.82;96.63;100879.22;5041176;28;20029;-58
2023/02/09 04:50:31;;;;;;;26.70;10.95;;;;;;;-6.78;97.59;100882.50;5035223;28;20025;-58
2023/02/09 04:52:56;;;;;;;22.75;9.63;;;;;;;-6.65;99.05;100882.59;5069214;28;20036;-58
2023/02/09 04:55:22;;;;;;;21.00;10.43;;;;;;;-6.74;96.43;100874.41;5040587;28;20205;-59
2023/02/09 05:00:31;;;;;;;20.33;10.07;;;;;;;-6.66;95.52;100881.78;5035917;28;20036;-58
2023/02/09 05:02:57;;;;;;;19.83;10.45;;;;;;;-7.05;94.26;100884.94;5043775;28;20484;-58
2023/02/09 05:05:22;;;;;;;20.55;10.73;;;;;;;-7.34;95.42;100897.88;5043055;28;20028;-58
2023/02/09 05:07:48;;;;;;;20.23;10.77;;;;;;;-7.60;95.52;100904.53;5043802;28;20051;-57
2023/02/09 05:10:14;;;;;;;18.00;9.40;;;;;;;-7.69;96.91;100899.84;5036622;28;20492;-60
2023/02/09 05:12:40;;;;;;;21.15;10.30;;;;;;;-7.74;97.83;100902.69;5037934;28;20080;-58
2023/02/09 05:15:06;;;;;;;22.25;11.35;;;;;;;-7.76;99.23;100894.16;5039401;28;20024;-60
2023/02/09 05:17:31;;;;;;;15.75;9.00;;;;;;;-7.75;99.46;100895.81;5040251;28;20029;-59
2023/02/09 05:19:58;;;;;;;14.43;7.40;;;;;;;-6.64;98.90;100890.34;5042546;28;20021;-58
2023/02/09 05:22:23;;;;;;;25.20;11.48;;;;;;;-6.43;95.34;100887.38;5073339;28;20021;-60
2023/02/09 05:24:48;;;;;;;24.88;10.95;;;;;;;-6.20;93.93;100883.38;5041379;28;20510;-58
2023/02/09 05:27:14;;;;;;;21.10;11.30;;;;;;;-6.19;94.59;100882.41;5043924;28;20455;-58
2023/02/09 05:29:40;;;;;;;24.85;11.55;;;;;;;-6.27;94.36;100882.06;5063323;28;20021;-58
2023/02/09 05:32:11;;;;;;;20.65;9.93;;;;;;;-6.41;94.28;100881.13;5069709;28;20029;-58
2023/02/09 05:34:36;;;;;;;23.88;12.18;;;;;;;-6.34;94.77;100879.84;5040862;28;20040;-59
2023/02/09 05:37:02;;;;;;;22.17;11.77;;;;;;;-6.21;93.59;100869.47;5040108;28;20022;-59
2023/02/09 05:39:27;;;;;;;28.90;15.68;;;;;;;-5.49;92.64;100869.25;5046625;28;20131;-59
2023/02/09 05:44:37;;;;;;;18.38;8.85;;;;;;;-5.52;89.27;100857.22;5049440;28;20169;-60
2023/02/09 05:47:02;;;;;;;22.60;9.55;;;;;;;-5.36;89.13;100858.88;5035963;28;20392;-59
2023/02/09 05:49:28;;;;;;;24.85;11.15;;;;;;;-5.53;89.25;100868.63;5045591;28;20092;-60
2023/02/09 05:51:53;;;;;;;22.55;10.80;;;;;;;-5.71;89.68;100857.59;5040633;28;20507;-59
2023/02/09 05:54:19;;;;;;;19.85;9.98;;;;;;;-6.50;86.96;100855.59;5039120;28;20024;-59
2023/02/09 05:56:53;;;;;;;18.73;9.65;;;;;;;-6.93;92.26;100854.72;5050198;28;20029;-59
2023/02/09 05:59:18;;;;;;;25.55;10.88;;;;;;;-7.49;92.82;100857.06;5047820;28;20029;-60
2023/02/09 06:01:44;;;;;;;20.95;10.75;;;;;;;-7.64;96.38;100857.00;5042867;28;20026;-59
2023/02/09 06:04:10;;;;;;;19.70;10.30;;;;;;;-7.49;97.15;100849.25;5040953;28;20026;-59
2023/02/09 06:06:35;;;;;;;19.98;9.80;;;;;;;-7.43;97.08;100854.13;5042638;28;20029;-59
2023/02/09 06:09:01;;;;;;;27.00;11.00;;;;;;;-7.24;99.38;100857.34;5040556;28;20095;-59
2023/02/09 06:11:26;;;;;;;30.10;12.15;;;;;;;-7.07;99.05;100860.72;5038127;28;20295;-60
2023/02/09 06:13:52;;;;;;;25.90;11.38;;;;;;;-7.48;96.68;100866.56;5040672;28;20024;-60
2023/02/09 06:16:17;;;;;;;22.63;10.60;;;;;;;-7.82;97.50;100864.06;5041643;28;20032;-59
2023/02/09 06:18:43;;;;;;;24.05;11.30;;;;;;;-7.72;100.00;100863.56;5040371;28;20075;-59
2023/02/09 06:21:10;;;;;;;27.60;13.27;;;;;;;-7.65;99.44;100863.13;5041568;28;20127;-58
2023/02/09 06:23:36;;;;;;;31.05;11.98;;;;;;;-7.64;99.07;100857.00;5034806;28;20793;-58
2023/02/09 06:26:05;;;;;;;22.13;10.80;;;;;;;-7.38;100.00;100865.13;5041825;28;20116;-59
2023/02/09 06:28:31;;;;;;;23.55;11.68;;;;;;;-7.45;100.00;100863.78;5034090;28;20146;-58
2023/02/09 06:30:56;;;;;;;23.80;12.38;;;;;;;-7.77;98.37;100861.22;5037608;28;20609;-58
2023/02/09 06:33:22;;;;;;;21.20;10.45;;;;;;;-7.85;98.39;100868.59;5041734;28;20021;-58
2023/02/09 06:35:47;;;;;;;18.80;9.55;;;;;;;-7.90;100.00;100865.41;5045570;28;20033;-59
2023/02/09 06:38:13;;;;;;;21.27;10.35;;;;;;;-7.66;100.00;100876.22;5037025;28;20456;-59
2023/02/09 06:40:38;;;;;;;19.58;9.75;;;;;;;-7.78;99.21;100875.16;5045080;28;20286;-59
2023/02/09 06:43:04;;;;;;;20.80;10.75;;;;;;;-7.90;98.82;100881.03;5044714;28;20490;-59
2023/02/09 06:45:29;;;;;;;18.83;9.93;;;;;;;-8.05;98.18;100875.72;5044908;28;20033;-60
2023/02/09 06:47:55;;;;;;;21.85;11.43;;;;;;;-8.08;98.83;100881.13;5037603;28;20029;-59
2023/02/09 06:50:20;;;;;;;24.88;10.43;;;;;;;-7.99;100.00;100891.94;5041087;28;20036;-58
2023/02/09 06:52:46;;;;;;;21.80;11.30;;;;;;;-7.85;100.00;100889.44;5046509;28;20494;-58
2023/02/09 06:55:11;;;;;;;24.20;11.20;;;;;;;-7.92;100.00;100877.66;5038693;28;20488;-58
2023/02/09 06:57:37;;;;;;;25.98;12.35;;;;;;;-7.74;100.00;100881.84;5044697;28;21224;-58
2023/02/09 07:00:06;;;;;;;22.45;11.27;;;;;;;-7.93;100.00;100873.41;5043907;28;20028;-59
2023/02/09 07:02:32;;;;;;;20.93;10.37;;;;;;;-7.79;100.00;100872.63;5046973;28;20051;-59
2023/02/09 07:04:57;;;;;;;26.85;11.15;;;;;;;-7.70;100.00;100870.34;5042887;28;20033;-59
2023/02/09 07:07:23;;;;;;;23.90;12.25;;;;;;;-7.72;100.00;100877.41;5030929;28;20028;-59
2023/02/09 07:09:48;;;;;;;22.25;11.38;;;;;;;-7.91;100.00;100875.00;5040625;28;20033;-60
2023/02/09 07:12:14;;;;;;;26.95;11.85;;;;;;;-8.12;100.00;100882.19;5047439;28;20479;-59
2023/02/09 07:14:43;;;;;;;25.42;11.75;;;;;;;-8.18;100.00;100876.50;5046044;28;20438;-59
2023/02/09 07:17:08;;;;;;;29.23;14.60;;;;;;;-7.76;100.00;100878.53;5043525;28;20056;-59
2023/02/09 07:19:34;;;;;;;26.60;14.02;;;;;;;-7.54;100.00;100895.53;5051642;28;20519;-59
2023/02/09 07:21:59;;;;;;;28.42;13.73;;;;;;;-7.49;100.00;100898.72;5041798;28;20158;-59
2023/02/09 07:24:25;;;;;;;28.30;14.73;;;;;;;-7.57;100.00;100885.31;5041069;28;20033;-59
2023/02/09 07:26:51;;;;;;;22.73;12.68;;;;;;;-8.00;99.04;100890.28;5051750;28;20434;-58
2023/02/09 07:29:16;;;;;;;22.50;10.75;;;;;;;-7.78;99.71;100893.38;5052856;28;20451;-58
2023/02/09 07:31:42;;;;;;;23.95;11.25;;;;;;;-7.71;99.17;100897.34;5047314;28;20028;-60
2023/02/09 07:34:07;;;;;;;20.40;10.35;;;;;;;-7.52;100.00;100902.34;5041870;28;20037;-59
2023/02/09 07:36:33;;;;;;;19.50;9.55;;;;;;;-6.41;98.17;100898.56;5047324;28;20143;-59
2023/02/09 07:38:58;;;;;;;16.77;7.90;;;;;;;-6.29;92.37;100905.63;5038009;28;20562;-59
2023/02/09 07:41:24;;;;;;;19.05;9.13;;;;;;;-6.08;91.70;100904.31;5043361;28;20029;-58
2023/02/09 07:43:49;;;;;;;25.80;12.90;;;;;;;-5.55;93.42;100898.41;5049705;28;20020;-59
2023/02/09 07:46:36;;;;;;;22.55;10.85;;;;;;;-4.57;88.54;100884.94;5038712;28;20407;-60
2023/02/09 07:49:02;;;;;;;21.35;10.25;;;;;;;-4.36;85.93;100892.28;5044836;28;20384;-59
2023/02/09 07:51:28;;;;;;;23.65;12.10;;;;;;;-3.67;82.86;100881.31;5041013;28;20509;-59
2023/02/09 07:53:54;;;;;;;27.45;13.65;;;;;;;-2.97;78.46;100872.69;5040737;28;20442;-59
2023/02/09 07:56:23;;;;;;;27.65;14.18;;;;;;;-2.96;76.59;100871.75;5048446;28;20059;-59
2023/02/09 07:58:51;;;;;;;38.78;19.67;;;;;;;-3.30;75.61;100864.59;5036429;28;20087;-60
2023/02/09 08:01:17;;;;;;;38.83;21.55;;;;;;;-3.09;74.20;100870.06;5043372;28;20029;-58
2023/02/09 08:03:43;;;;;;;41.38;24.63;;;;;;;-2.44;72.91;100879.13;5038468;28;20036;-60
2023/02/09 08:06:12;;;;;;;41.45;23.23;;;;;;;-2.40;71.81;100888.47;5040462;28;20789;-60
2023/02/09 08:08:37;;;;;;;56.60;26.55;;;;;;;-2.64;73.04;100880.66;5036498;28;20542;-60
2023/02/09 08:11:04;;;;;;;46.85;24.20;;;;;;;-1.97;71.02;100890.38;5041300;28;20084;-60
2023/02/09 08:13:31;;;;;;;45.80;24.50;;;;;;;-2.15;71.01;100899.66;5044105;28;20033;-60
2023/02/09 08:15:59;;;;;;;44.15;23.65;;;;;;;-1.93;70.58;100898.00;5033222;28;20167;-59
2023/02/09 08:18:29;;;;;;;35.67;19.45;;;;;;;-2.25;71.31;100911.84;5042233;28;20405;-59
2023/02/09 08:20:54;;;;;;;32.88;19.85;;;;;;;-1.87;72.24;100915.91;5039138;28;20029;-59
2023/02/09 08:23:28;;;;;;;34.00;18.67;;;;;;;-1.80;69.52;100911.84;5042126;28;20466;-59
2023/02/09 08:25:54;;;;;;;35.63;17.48;;;;;;;-2.12;72.64;100907.34;5038209;28;20472;-59
2023/02/09 08:28:20;;;;;;;30.67;16.10;;;;;;;-1.48;69.27;100911.06;5041636;28;20182;-59
2023/02/09 08:30:46;;;;;;;25.40;13.60;;;;;;;-0.96;70.13;100912.91;5039033;28;20025;-59
2023/02/09 08:33:11;;;;;;;25.90;14.00;;;;;;;0.01;65.93;100917.94;5039657;28;20024;-59
2023/02/09 08:35:37;;;;;;;23.02;11.88;;;;;;;-0.13;64.59;100913.00;5040165;28;20060;-60
2023/02/09 08:38:02;;;;;;;25.08;13.32;;;;;;;-0.03;65.70;100904.16;5039394;28;20029;-59
2023/02/09 08:40:29;;;;;;;24.95;12.77;;;;;;;-0.08;65.60;100906.38;5036775;28;20033;-59
2023/02/09 08:42:55;;;;;;;28.63;15.52;;;;;;;0.42;63.79;100902.94;5036519;28;20490;-60
2023/02/09 08:45:24;;;;;;;23.73;12.50;;;;;;;-0.03;63.51;100911.25;5034341;28;20033;-59
2023/02/09 08:47:56;;;;;;;22.35;11.95;;;;;;;0.26;65.83;100910.53;5038486;28;20495;-60
2023/02/09 08:50:24;;;;;;;30.30;13.13;;;;;;;-0.99;67.43;100907.09;5031735;28;20093;-59
2023/02/09 08:52:56;;;;;;;27.92;14.77;;;;;;;-0.93;69.71;100896.03;5041664;28;20029;-59
2023/02/09 08:55:22;;;;;;;27.90;13.77;;;;;;;-0.73;70.86;100897.84;5058975;28;20074;-60
2023/02/09 08:57:48;;;;;;;24.70;13.20;;;;;;;-1.19;71.59;100901.66;5038408;28;20154;-60
2023/02/09 09:00:14;;;;;;;33.67;14.77;;;;;;;-0.55;69.26;100905.16;5041258;28;20484;-60
2023/02/09 09:02:40;;;;;;;27.88;14.73;;;;;;;0.24;66.19;100918.56;5036234;28;20048;-60
2023/02/09 09:05:05;;;;;;;26.20;13.57;;;;;;;0.34;65.43;100924.72;5046559;28;20033;-59
2023/02/09 09:07:31;;;;;;;26.38;13.13;;;;;;;1.02;64.32;100916.91;5041269;28;20326;-60
2023/02/09 09:09:56;;;;;;;24.75;12.75;;;;;;;0.32;64.80;100916.09;5036595;28;20041;-59
2023/02/09 09:12:22;;;;;;;26.42;13.43;;;;;;;-0.49;65.92;100917.81;5040942;28;20033;-58
2023/02/09 09:14:47;;;;;;;26.00;13.55;;;;;;;0.30;65.32;100919.81;5036763;28;20056;-59
2023/02/09 09:17:13;;;;;;;26.92;13.88;;;;;;;0.90;64.96;100920.66;5033587;28;20469;-60
2023/02/09 09:19:38;;;;;;;26.45;13.85;;;;;;;0.31;64.42;100918.88;5029103;28;20345;-58
2023/02/09 09:22:04;;;;;;;24.35;13.93;;;;;;;1.28;63.27;100916.31;5036429;28;20066;-59
2023/02/09 09:24:29;;;;;;;26.33;13.95;;;;;;;1.04;65.66;100906.19;5039251;28;20042;-59
2023/02/09 09:26:55;;;;;;;29.20;14.50;;;;;;;-0.64;69.83;100903.31;5035620;28;20060;-59
2023/02/09 09:29:21;;;;;;;26.90;14.30;;;;;;;-0.83;69.25;100902.22;5038463;28;20040;-59
2023/02/09 09:31:46;;;;;;;27.15;14.02;;;;;;;-1.14;70.31;100898.66;5027435;28;20509;-59
2023/02/09 09:34:12;;;;;;;25.20;14.00;;;;;;;-0.49;68.74;100908.13;5030046;28;20185;-60
2023/02/09 09:36:38;;;;;;;28.95;15.02;;;;;;;0.47;66.86;100903.34;5034194;28;20032;-60
2023/02/09 09:39:03;;;;;;;25.17;12.73;;;;;;;-0.28;66.68;100908.09;5034423;28;20064;-58
2023/02/09 09:41:34;;;;;;;26.08;14.15;;;;;;;-0.22;67.67;100912.03;5037134;28;20032;-57
2023/02/09 09:44:00;;;;;;;26.35;13.65;;;;;;;0.32;67.54;100916.09;5037966;28;20061;-59
2023/02/09 09:46:46;;;;;;;27.23;13.57;;;;;;;0.50;64.46;100912.78;5028740;28;20017;-60
2023/02/09 09:49:25;;;;;;;25.20;12.15;;;;;;;-0.24;68.29;100900.78;5045006;28;20074;-60
2023/02/09 09:51:59;;;;;;;29.17;14.32;;;;;;;0.15;68.38;100904.41;5034129;28;20079;-60
2023/02/09 09:54:28;;;;;;;28.50;12.75;;;;;;;-0.20;69.16;100920.63;5044017;28;20124;-60
2023/02/09 09:56:54;;;;;;;16.75;9.25;;;;;;;0.64;65.35;100921.16;5038331;28;20034;-60
2023/02/09 09:59:37;;;;;;;25.58;14.25;;;;;;;0.83;62.69;100935.38;5061623;28;20107;-59
2023/02/09 10:02:26;;;;;;;25.70;14.45;;;;;;;1.37;60.74;100936.59;5054031;28;20036;-58
2023/02/09 10:04:51;;;;;;;28.92;15.07;;;;;;;2.06;60.02;100934.63;5063012;28;20117;-59
2023/02/09 10:07:18;;;;;;;28.05;14.27;;;;;;;1.05;61.75;100950.13;5037506;28;20047;-59
2023/02/09 10:10:04;;;;;;;29.40;15.05;;;;;;;1.67;61.01;100955.88;5069820;28;20523;-58
2023/02/09 10:12:42;;;;;;;28.88;13.88;;;;;;;2.76;58.73;100958.78;5037291;28;20498;-59
2023/02/09 10:15:26;;;;;;;24.48;14.23;;;;;;;2.33;59.58;100957.63;5025594;28;20071;-59
2023/02/09 10:17:52;;;;;;;12.95;8.45;;;;;;;0.81;61.21;100953.97;5032126;28;20087;-59
2023/02/09 10:20:20;;;;;;;29.48;14.50;;;;;;;2.43;62.04;100950.47;5069462;28;20599;-60
2023/02/09 10:22:46;;;;;;;34.30;15.38;;;;;;;2.06;60.60;100942.56;5024682;28;20166;-59
2023/02/09 10:25:37;;;;;;;27.00;14.82;;;;;;;2.25;58.23;100945.13;5058421;28;20029;-58
2023/02/09 10:28:05;;;;;;;29.65;13.63;;;;;;;2.97;55.44;100961.13;5037628;28;20109;-58
2023/02/09 10:30:31;;;;;;;24.50;13.32;;;;;;;2.41;56.98;100946.31;5036210;28;20059;-59
2023/02/09 10:32:58;;;;;;;28.80;15.63;;;;;;;3.29;55.47;100947.34;5039955;28;20055;-58
2023/02/09 10:35:35;;;;;;;28.40;15.35;;;;;;;3.26;56.22;100950.31;5034576;28;20040;-58
2023/02/09 10:38:26;;;;;;;18.40;11.80;;;;;;;1.42;59.31;100946.75;5044065;28;20613;-59
2023/02/09 10:40:57;;;;;;;27.73;14.88;;;;;;;1.49;61.97;100950.50;5039242;28;20033;-60
2023/02/09 10:43:30;;;;;;;31.98;14.95;;;;;;;2.98;57.21;100952.22;5043570;28;20029;-59
2023/02/09 10:46:01;;;;;;;26.52;13.43;;;;;;;3.57;55.79;100964.00;5041592;28;20033;-58
2023/02/09 10:48:27;;;;;;;;;;;;;;;2.59;56.88;100965.69;5042991;28;20025;-59
2023/02/09 10:51:11;;;;;;;26.27;11.15;;;;;;;1.87;58.40;100962.81;5041772;28;20299;-60
2023/02/09 10:53:39;;;;;;;29.23;14.77;;;;;;;3.56;56.82;100967.63;5039619;28;20566;-60
2023/02/09 10:56:19;;;;;;;24.45;12.38;;;;;;;3.42;54.69;100965.50;5035812;28;20041;-60
2023/02/09 10:58:52;;;;;;;27.30;13.55;;;;;;;3.01;59.86;100954.56;5023246;28;20116;-60
2023/02/09 11:01:23;;;;;;;27.55;14.23;;;;;;;3.76;56.12;100946.22;5044653;28;20039;-60
2023/02/09 11:04:05;;;;;;;29.15;14.20;;;;;;;3.71;57.39;100945.84;5040059;28;20040;-60
2023/02/09 11:06:45;;;;;;;26.08;14.20;;;;;;;3.35;58.76;100943.28;5039674;28;20235;-60
2023/02/09 11:09:27;;;;;;;27.48;14.65;;;;;;;4.04;55.00;100933.59;5031231;28;20038;-60
2023/02/09 11:11:54;;;;;;;29.25;14.90;;;;;;;2.72;58.91;100939.72;5043276;28;20033;-60
2023/02/09 11:14:19;;;;;;;27.85;14.93;;;;;;;2.83;58.88;100929.91;5025767;28;20116;-60
2023/02/09 11:16:56;;;;;;;25.33;13.07;;;;;;;2.13;61.27;100925.13;5040108;28;20033;-60
2023/02/09 11:19:32;;;;;;;27.60;14.98;;;;;;;2.30;62.56;100927.00;5042016;28;20120;-59
2023/02/09 11:22:11;;;;;;;28.55;15.25;;;;;;;2.03;62.01;100919.06;5044734;28;20031;-59
2023/02/09 11:24:52;;;;;;;24.30;13.67;;;;;;;1.98;64.16;100918.66;5037368;28;20116;-59
2023/02/09 11:27:20;;;;;;;23.83;12.80;;;;;;;1.81;64.09;100910.50;5046384;28;20395;-59